createdAt,value
2023-01-04T00:02:39.905Z,94.92
2023-01-04T00:06:22.750Z,96.34
2023-01-04T00:10:06.457Z,96.53
2023-01-04T00:13:50.431Z,96.83
2023-01-04T00:17:34.571Z,96.65
2023-01-04T00:21:18.889Z,95.99
2023-01-04T00:25:01.560Z,95.84
2023-01-04T00:28:50.067Z,95.38
2023-01-04T00:32:35.923Z,95.13
2023-01-04T00:36:18.611Z,94.93
2023-01-04T00:40:01.262Z,94.74
2023-01-04T00:43:43.963Z,94.04
2023-01-04T00:47:26.703Z,93.83
2023-01-04T00:51:10.781Z,94.60
2023-01-04T00:54:53.422Z,95.35
2023-01-04T00:58:36.105Z,93.76
2023-01-04T01:02:18.895Z,92.72
2023-01-04T01:06:02.483Z,93.16
2023-01-04T01:09:46.536Z,93.95
2023-01-04T01:13:29.146Z,93.37
2023-01-04T01:17:11.912Z,92.61
2023-01-04T01:20:54.626Z,92.56
2023-01-04T01:24:37.349Z,93.29
2023-01-04T01:28:21.340Z,94.21
2023-01-04T01:32:04.131Z,94.40
2023-01-04T01:35:46.834Z,92.68
2023-01-04T01:39:29.826Z,92.44
2023-01-04T01:43:18.340Z,91.07
2023-01-04T01:47:02.824Z,91.69
2023-01-04T01:50:47.545Z,92.04
2023-01-04T01:54:32.577Z,92.32
2023-01-04T01:58:19.735Z,92.69
2023-01-04T02:02:04.065Z,94.15
2023-01-04T02:05:49.426Z,95.90
2023-01-04T02:09:32.435Z,96.61
2023-01-04T02:13:17.385Z,98.75
2023-01-04T02:17:08.842Z,98.74
2023-01-04T02:20:53.421Z,99.63
2023-01-04T02:24:51.383Z,99.92
2023-01-04T02:28:48.913Z,100.00
2023-01-04T02:32:43.726Z,100.00
2023-01-04T02:36:31.971Z,100.00
2023-01-04T02:40:19.629Z,100.00
2023-01-04T02:44:24.921Z,100.00
2023-01-04T02:48:27.277Z,100.00
2023-01-04T02:52:10.072Z,98.96
2023-01-04T02:55:57.746Z,97.99
2023-01-04T03:00:01.887Z,97.55
2023-01-04T03:04:09.828Z,96.23
2023-01-04T03:07:56.044Z,96.61
2023-01-04T03:12:00.184Z,97.14
2023-01-04T03:15:44.039Z,97.55
2023-01-04T03:19:42.446Z,98.42
2023-01-04T03:23:45.857Z,99.16
2023-01-04T03:27:46.222Z,99.54
2023-01-04T03:32:05.304Z,98.76
2023-01-04T03:35:56.655Z,99.25
2023-01-04T03:40:11.271Z,100.00
2023-01-04T03:44:13.094Z,100.00
2023-01-04T03:48:19.099Z,100.00
2023-01-04T03:52:05.007Z,98.99
2023-01-04T03:55:48.069Z,98.40
2023-01-04T03:59:32.316Z,97.77
2023-01-04T04:03:15.013Z,97.10
2023-01-04T04:07:15.412Z,97.94
2023-01-04T04:11:22.015Z,98.99
2023-01-04T04:15:05.272Z,98.03
2023-01-04T04:18:48.553Z,96.28
2023-01-04T04:22:31.149Z,96.36
2023-01-04T04:26:15.210Z,95.38
2023-01-04T04:29:57.883Z,95.31
2023-01-04T04:33:40.850Z,95.15
2023-01-04T04:37:23.498Z,95.76
2023-01-04T04:41:28.187Z,95.61
2023-01-04T04:45:12.560Z,96.76
2023-01-04T04:48:55.316Z,96.02
2023-01-04T04:52:37.979Z,94.98
2023-01-04T04:56:20.757Z,95.36
2023-01-04T05:00:03.994Z,95.38
2023-01-04T05:03:48.540Z,95.48
2023-01-04T05:07:31.257Z,95.37
2023-01-04T05:11:14.592Z,95.97
2023-01-04T05:14:56.236Z,96.65
2023-01-04T05:18:38.906Z,96.01
2023-01-04T05:22:22.964Z,95.51
2023-01-04T05:26:05.925Z,95.81
2023-01-04T05:30:06.348Z,94.56
2023-01-04T05:33:51.489Z,93.92
2023-01-04T05:37:35.563Z,92.54
2023-01-04T05:41:35.811Z,92.16
2023-01-04T05:45:19.496Z,92.66
2023-01-04T05:49:02.133Z,93.37
2023-01-04T05:52:46.248Z,94.54
2023-01-04T05:56:28.890Z,95.29
2023-01-04T06:00:13.711Z,94.51
2023-01-04T06:03:56.445Z,94.16
2023-01-04T06:07:39.363Z,94.19
2023-01-04T06:11:27.533Z,94.04
2023-01-04T06:15:11.966Z,93.43
2023-01-04T06:18:54.687Z,92.86
2023-01-04T06:22:37.792Z,92.75
2023-01-04T06:26:20.556Z,93.93
2023-01-04T06:30:05.210Z,92.94
2023-01-04T06:33:47.863Z,92.93
2023-01-04T06:37:30.498Z,92.71
2023-01-04T06:41:13.145Z,92.58
2023-01-04T06:44:55.800Z,91.76
2023-01-04T06:48:39.801Z,91.78
2023-01-04T06:52:24.095Z,93.27
2023-01-04T06:56:09.152Z,92.04
2023-01-04T06:59:52.158Z,92.40
2023-01-04T07:03:35.043Z,92.38
2023-01-04T07:07:19.079Z,93.01
2023-01-04T07:11:01.803Z,93.43
2023-01-04T07:14:44.467Z,93.93
2023-01-04T07:18:27.130Z,94.28
2023-01-04T07:22:09.850Z,93.22
2023-01-04T07:25:53.840Z,94.66
2023-01-04T07:29:36.540Z,93.55
2023-01-04T07:33:19.241Z,92.34
2023-01-04T07:37:01.927Z,93.13
2023-01-04T07:40:56.270Z,92.86
2023-01-04T07:44:41.112Z,93.18
2023-01-04T07:48:23.898Z,92.52
2023-01-04T07:52:06.605Z,92.83
2023-01-04T07:55:49.265Z,92.99
2023-01-04T07:59:34.519Z,93.27
2023-01-04T08:03:18.698Z,93.22
2023-01-04T08:07:01.371Z,92.54
2023-01-04T08:10:44.093Z,92.10
2023-01-04T08:14:26.809Z,91.97
2023-01-04T08:18:09.461Z,91.77
2023-01-04T08:21:53.695Z,90.42
2023-01-04T08:25:36.436Z,89.98
2023-01-04T08:29:19.191Z,89.93
2023-01-04T08:33:01.852Z,89.23
2023-01-04T08:36:50.089Z,88.43
2023-01-04T08:40:58.201Z,87.53
2023-01-04T08:44:36.886Z,87.90
2023-01-04T08:48:24.533Z,86.66
2023-01-04T08:52:09.151Z,87.87
2023-01-04T08:55:53.752Z,85.70
2023-01-04T08:59:36.485Z,85.66
2023-01-04T09:03:19.492Z,84.46
2023-01-04T09:07:02.520Z,82.90
2023-01-04T09:10:45.197Z,81.80
2023-01-04T09:14:29.343Z,81.78
2023-01-04T09:18:30.911Z,80.95
2023-01-04T09:22:14.910Z,81.02
2023-01-04T09:25:57.633Z,81.05
2023-01-04T09:29:42.389Z,80.98
2023-01-04T09:33:47.702Z,80.73
2023-01-04T09:37:28.770Z,80.25
2023-01-04T09:41:19.694Z,79.24
2023-01-04T09:45:23.815Z,78.52
2023-01-04T09:49:16.258Z,78.45
2023-01-04T09:53:06.037Z,76.51
2023-01-04T09:56:52.674Z,75.92
2023-01-04T10:00:43.966Z,75.90
2023-01-04T10:04:30.567Z,74.93
2023-01-04T10:08:16.435Z,74.29
2023-01-04T10:12:10.489Z,73.45
2023-01-04T10:15:58.641Z,72.50
2023-01-04T10:24:11.027Z,72.14
2023-01-04T10:28:04.735Z,71.15
2023-01-04T10:31:52.405Z,71.00
2023-01-04T10:35:36.681Z,70.18
2023-01-04T10:39:21.816Z,68.15
2023-01-04T10:43:08.791Z,67.61
2023-01-04T10:46:57.917Z,67.09
2023-01-04T10:50:49.711Z,67.90
2023-01-04T10:54:36.614Z,67.53
2023-01-04T10:58:23.761Z,67.73
2023-01-04T11:02:17.103Z,68.36
2023-01-04T11:06:02.868Z,68.02
2023-01-04T11:09:48.238Z,67.82
2023-01-04T11:13:31.226Z,66.70
2023-01-04T11:17:15.572Z,66.97
2023-01-04T11:20:58.781Z,66.01
2023-01-04T11:24:54.504Z,61.82
2023-01-04T11:28:47.784Z,61.09
2023-01-04T11:32:37.405Z,62.13
2023-01-04T11:36:34.897Z,62.68
2023-01-04T11:40:23.574Z,61.68
2023-01-04T11:44:08.687Z,62.91
2023-01-04T11:47:54.397Z,62.58
2023-01-04T11:51:39.680Z,62.71
2023-01-04T11:55:26.096Z,61.78
2023-01-04T11:59:24.561Z,61.93
2023-01-04T12:03:14.610Z,61.95
2023-01-04T12:07:00.488Z,62.03
2023-01-04T12:10:43.798Z,60.34
2023-01-04T12:14:28.257Z,59.50
2023-01-04T12:18:17.763Z,58.22
2023-01-04T12:22:02.469Z,57.55
2023-01-04T12:25:46.465Z,56.52
2023-01-04T12:29:54.165Z,55.91
2023-01-04T12:33:41.460Z,55.53
2023-01-04T12:37:49.285Z,54.85
2023-01-04T12:42:05.496Z,53.72
2023-01-04T12:46:08.852Z,53.36
2023-01-04T12:50:00.072Z,52.27
2023-01-04T12:53:57.982Z,51.93
2023-01-04T12:57:41.158Z,51.57
2023-01-04T13:01:26.325Z,51.00
2023-01-04T13:09:46.536Z,50.80
2023-01-04T13:13:36.904Z,49.05
2023-01-04T13:17:22.302Z,48.75
2023-01-04T13:21:12.642Z,47.97
2023-01-04T13:24:57.873Z,47.90
2023-01-04T13:28:40.716Z,47.14
2023-01-04T13:32:25.009Z,47.94
2023-01-04T13:36:12.859Z,47.43
2023-01-04T13:40:03.309Z,47.11
2023-01-04T13:43:54.886Z,47.11
2023-01-04T13:47:39.311Z,47.04
2023-01-04T13:51:33.962Z,46.98
2023-01-04T13:55:21.943Z,47.05
2023-01-04T13:59:04.619Z,46.65
2023-01-04T14:02:47.689Z,45.94
2023-01-04T14:06:33.241Z,45.73
2023-01-04T14:10:19.172Z,45.67
2023-01-04T14:14:01.994Z,45.33
2023-01-04T14:17:49.636Z,45.70
2023-01-04T14:21:37.779Z,45.27
2023-01-04T14:25:43.516Z,45.29
2023-01-04T14:29:33.439Z,45.74
2023-01-04T14:33:18.577Z,45.68
2023-01-04T14:37:05.367Z,46.10
2023-01-04T14:40:48.116Z,45.93
2023-01-04T14:44:32.011Z,45.85
2023-01-04T14:48:18.560Z,45.93
2023-01-04T14:52:12.144Z,46.11
2023-01-04T14:55:55.544Z,45.81
2023-01-04T14:59:38.430Z,46.19
2023-01-04T15:03:21.274Z,46.60
2023-01-04T15:07:04.054Z,50.46
2023-01-04T15:10:51.126Z,50.13
2023-01-04T15:14:36.234Z,48.10
2023-01-04T15:18:19.185Z,48.11
2023-01-04T15:22:01.956Z,47.97
2023-01-04T15:25:44.766Z,48.11
2023-01-04T15:29:28.826Z,48.85
2023-01-04T15:33:11.737Z,49.55
2023-01-04T15:36:55.712Z,50.94
2023-01-04T15:40:38.535Z,51.61
2023-01-04T15:44:21.264Z,51.95
2023-01-04T15:48:05.952Z,54.05
2023-01-04T15:51:48.664Z,53.21
2023-01-04T15:55:36.390Z,53.97
2023-01-04T15:59:19.526Z,54.97
2023-01-04T16:03:05.292Z,55.05
2023-01-04T16:06:49.436Z,55.40
2023-01-04T16:10:32.180Z,57.50
2023-01-04T16:14:14.983Z,56.87
2023-01-04T16:17:57.675Z,57.52
2023-01-04T16:21:40.411Z,58.13
2023-01-04T16:25:24.452Z,59.40
2023-01-04T16:29:07.146Z,60.00
2023-01-04T16:32:51.844Z,60.97
2023-01-04T16:36:34.585Z,61.69
2023-01-04T16:40:17.316Z,62.14
2023-01-04T16:44:02.284Z,63.37
2023-01-04T16:47:46.034Z,63.98
2023-01-04T16:51:30.662Z,64.03
2023-01-04T16:55:14.429Z,64.41
2023-01-04T16:58:59.119Z,64.47
2023-01-04T17:02:43.378Z,64.91
2023-01-04T17:06:27.440Z,65.18
2023-01-04T17:10:10.632Z,65.67
2023-01-04T17:13:53.419Z,65.97
2023-01-04T17:17:36.266Z,66.04
2023-01-04T17:21:33.790Z,66.25
2023-01-04T17:25:17.612Z,66.57
2023-01-04T17:29:01.811Z,68.63
2023-01-04T17:32:44.725Z,66.75
2023-01-04T17:36:28.782Z,65.65
2023-01-04T17:40:19.022Z,65.85
2023-01-04T17:44:06.703Z,66.32
2023-01-04T17:47:49.837Z,66.33
2023-01-04T17:51:33.927Z,66.66
2023-01-04T17:55:16.831Z,66.95
2023-01-04T17:59:01.078Z,67.02
2023-01-04T18:02:44.460Z,67.41
2023-01-04T18:06:28.539Z,67.30
2023-01-04T18:10:27.218Z,67.27
2023-01-04T18:14:21.172Z,67.55
2023-01-04T18:18:03.923Z,67.74
2023-01-04T18:21:47.018Z,67.50
2023-01-04T18:25:31.089Z,67.49
2023-01-04T18:29:13.823Z,67.96
2023-01-04T18:32:56.516Z,67.84
2023-01-04T18:36:42.694Z,68.02
2023-01-04T18:40:25.618Z,68.60
2023-01-04T18:44:31.988Z,68.26
2023-01-04T18:48:13.658Z,68.49
2023-01-04T18:51:56.263Z,68.95
2023-01-04T18:55:39.289Z,68.86
2023-01-04T18:59:24.330Z,69.07
2023-01-04T19:03:07.384Z,68.66
2023-01-04T19:06:50.337Z,68.93
2023-01-04T19:10:33.028Z,68.88
2023-01-04T19:14:16.067Z,68.85
2023-01-04T19:18:00.128Z,68.37
2023-01-04T19:21:43.060Z,68.58
2023-01-04T19:25:28.501Z,68.38
2023-01-04T19:29:11.549Z,68.51
2023-01-04T19:32:54.340Z,68.05
2023-01-04T19:36:38.842Z,68.15
2023-01-04T19:40:21.632Z,68.09
2023-01-04T19:44:05.365Z,67.96
2023-01-04T19:47:50.565Z,67.71
2023-01-04T19:51:33.234Z,67.72
2023-01-04T19:55:18.566Z,67.58
2023-01-04T19:59:01.739Z,67.31
2023-01-04T20:02:44.817Z,67.10
2023-01-04T20:06:28.167Z,66.89
2023-01-04T20:10:14.407Z,66.69
2023-01-04T20:13:58.874Z,66.57
2023-01-04T20:17:42.176Z,66.15
2023-01-04T20:21:25.200Z,65.84
2023-01-04T20:25:08.665Z,65.51
2023-01-04T20:28:53.245Z,65.52
2023-01-04T20:32:38.151Z,65.40
2023-01-04T20:36:22.930Z,65.29
2023-01-04T20:40:06.571Z,65.07
2023-01-04T20:43:49.734Z,65.29
2023-01-04T20:47:32.446Z,65.03
2023-01-04T20:51:18.664Z,64.92
2023-01-04T20:55:01.417Z,65.14
2023-01-04T20:58:44.755Z,65.04
2023-01-04T21:02:27.701Z,64.92
2023-01-04T21:06:12.890Z,64.76
2023-01-04T21:09:56.932Z,64.86
2023-01-04T21:13:40.098Z,64.70
2023-01-04T21:17:24.106Z,64.85
2023-01-04T21:21:07.749Z,64.70
2023-01-04T21:24:50.500Z,66.97
2023-01-04T21:28:36.680Z,65.15
2023-01-04T21:32:19.465Z,64.13
2023-01-04T21:36:10.131Z,65.06
2023-01-04T21:39:52.848Z,67.08
2023-01-04T21:43:37.142Z,69.18
2023-01-04T21:47:19.858Z,70.48
2023-01-04T21:51:03.300Z,72.28
2023-01-04T21:54:45.968Z,73.51
2023-01-04T21:58:29.242Z,74.74
2023-01-04T22:02:15.834Z,75.67
2023-01-04T22:06:02.004Z,76.37
2023-01-04T22:09:44.711Z,78.26
2023-01-04T22:13:28.261Z,79.03
2023-01-04T22:17:10.974Z,80.90
2023-01-04T22:21:03.839Z,82.93
2023-01-04T22:24:46.587Z,84.44
2023-01-04T22:28:36.311Z,84.61
2023-01-04T22:32:19.317Z,86.02
2023-01-04T22:36:06.164Z,88.04
2023-01-04T22:39:48.885Z,89.51
2023-01-04T22:43:31.582Z,92.16
2023-01-04T22:47:14.230Z,93.07
2023-01-04T22:50:59.870Z,94.64
2023-01-04T22:54:48.553Z,95.16
2023-01-04T22:58:31.259Z,94.32
2023-01-04T23:02:14.689Z,93.11
2023-01-04T23:05:57.380Z,91.10
2023-01-04T23:09:42.291Z,87.93
2023-01-04T23:13:26.244Z,86.56
2023-01-04T23:17:08.867Z,86.10
2023-01-04T23:20:54.381Z,83.64
2023-01-04T23:24:38.004Z,82.31
2023-01-04T23:28:21.167Z,80.91
2023-01-04T23:32:05.619Z,80.69
2023-01-04T23:35:48.496Z,79.56
2023-01-04T23:39:31.179Z,79.05
2023-01-04T23:43:16.522Z,78.74
2023-01-04T23:47:01.074Z,77.95
2023-01-04T23:50:45.116Z,77.96
2023-01-04T23:54:30.905Z,77.12
2023-01-04T23:58:13.722Z,76.88
